Time;durP1;ratioP1;P1;durP2;ratioP2;P2;SDS_P1;SDS_P2;PMS_P1;PMS_P2;Temp;Humidity;BMP_temperature;BMP_pressure;BME280_temperature;BME280_humidity;BME280_pressure;Samples;Min_cycle;Max_cycle;Signal;HPM_P1;HPM_P2
2021/06/30 00:00:45;;;;;;;7.50;3.60;;;;;;;21.92;58.35;96655.50;5073055;28;20063;-70
2021/06/30 00:03:10;;;;;;;5.55;3.38;;;;;;;21.96;58.16;96654.84;5074943;28;20029;-69
2021/06/30 00:05:36;;;;;;;8.75;3.60;;;;;;;22.00;58.39;96653.34;5056997;28;20032;-67
2021/06/30 00:08:02;;;;;;;6.47;3.70;;;;;;;22.04;57.54;96645.56;5074549;28;20103;-67
2021/06/30 00:10:27;;;;;;;7.28;3.58;;;;;;;22.13;56.77;96648.91;5073071;28;20485;-67
2021/06/30 00:12:53;;;;;;;7.18;3.38;;;;;;;22.14;56.84;96656.06;5074090;28;20028;-67
2021/06/30 00:15:24;;;;;;;5.90;3.22;;;;;;;22.12;57.17;96648.06;5072847;28;20044;-67
2021/06/30 00:17:49;;;;;;;6.63;3.50;;;;;;;22.06;57.32;96651.66;5073931;28;20388;-67
2021/06/30 00:20:15;;;;;;;5.82;3.30;;;;;;;22.11;56.99;96651.03;5073528;28;20021;-67
2021/06/30 00:22:41;;;;;;;6.50;3.40;;;;;;;22.11;57.14;96645.56;5055986;28;20020;-67
2021/06/30 00:25:07;;;;;;;6.80;3.45;;;;;;;22.20;56.59;96647.00;5073835;28;20031;-69
2021/06/30 00:27:33;;;;;;;7.97;3.20;;;;;;;22.18;56.03;96644.50;5074168;28;20034;-69
2021/06/30 00:29:58;;;;;;;6.35;3.60;;;;;;;22.12;56.69;96636.28;5073921;28;20488;-69
2021/06/30 00:32:24;;;;;;;7.07;3.35;;;;;;;21.99;57.09;96640.72;5073974;28;20056;-69
2021/06/30 00:34:49;;;;;;;8.40;3.40;;;;;;;21.80;57.29;96647.91;5073833;28;20024;-69
2021/06/30 00:37:15;;;;;;;6.88;3.30;;;;;;;21.78;57.23;96644.56;5074323;28;20093;-69
2021/06/30 00:39:41;;;;;;;6.55;3.67;;;;;;;21.82;57.06;96650.44;5073792;28;20107;-69
2021/06/30 00:42:07;;;;;;;8.25;3.35;;;;;;;21.87;56.79;96648.75;5072468;28;20046;-69
2021/06/30 00:44:35;;;;;;;8.23;3.42;;;;;;;21.89;56.66;96648.53;5073518;28;20596;-69
2021/06/30 00:47:02;;;;;;;8.13;3.30;;;;;;;21.89;56.66;96648.53;5073128;28;20028;-70
2021/06/30 00:49:27;;;;;;;6.32;3.40;;;;;;;21.85;56.82;96658.25;5071695;28;20526;-69
2021/06/30 00:51:53;;;;;;;7.22;3.20;;;;;;;21.82;57.01;96650.44;5070447;28;20115;-69
2021/06/30 00:54:18;;;;;;;7.45;3.30;;;;;;;21.71;57.39;96658.25;5071756;28;20077;-69
2021/06/30 00:56:44;;;;;;;5.50;3.20;;;;;;;21.77;57.05;96662.03;5073335;28;20028;-69
2021/06/30 00:59:11;;;;;;;5.80;3.30;;;;;;;21.77;57.11;96653.81;5072147;28;20040;-69
2021/06/30 01:01:36;;;;;;;9.18;3.30;;;;;;;21.76;57.18;96660.34;5055565;28;20025;-69
2021/06/30 01:04:02;;;;;;;9.38;3.33;;;;;;;21.75;57.02;96658.63;5051972;28;20031;-69
2021/06/30 01:06:27;;;;;;;7.25;3.30;;;;;;;21.73;57.16;96658.03;5053571;28;20480;-69
2021/06/30 01:08:53;;;;;;;9.30;3.22;;;;;;;21.67;56.97;96653.38;5053419;28;20036;-69
2021/06/30 01:11:18;;;;;;;7.68;3.42;;;;;;;21.70;57.10;96659.28;5057563;28;20033;-69
2021/06/30 01:13:44;;;;;;;5.38;3.40;;;;;;;21.66;57.16;96655.28;5053385;28;20025;-70
2021/06/30 01:16:10;;;;;;;5.38;3.30;;;;;;;21.62;57.24;96654.03;5053247;28;20469;-68
2021/06/30 01:18:36;;;;;;;5.57;3.40;;;;;;;21.64;57.26;96657.38;5085943;28;20036;-69
2021/06/30 01:21:04;;;;;;;7.55;3.65;;;;;;;21.61;57.31;96656.97;5052990;28;20047;-69
2021/06/30 01:23:30;;;;;;;6.53;3.38;;;;;;;21.73;56.84;96655.28;5052857;28;20036;-68
2021/06/30 01:25:56;;;;;;;6.30;3.13;;;;;;;21.60;57.17;96658.84;5051857;28;20029;-67
2021/06/30 01:28:22;;;;;;;7.03;3.20;;;;;;;21.51;57.52;96650.00;5053412;28;20108;-68
2021/06/30 01:30:49;;;;;;;7.45;3.25;;;;;;;21.46;57.81;96660.72;5053232;28;20108;-67
2021/06/30 01:33:15;;;;;;;10.55;3.45;;;;;;;21.36;58.30;96660.28;5053026;28;20112;-67
2021/06/30 01:35:41;;;;;;;8.75;3.47;;;;;;;21.19;58.84;96660.69;5052938;28;20061;-68
2021/06/30 01:38:06;;;;;;;5.35;3.25;;;;;;;21.07;59.05;96660.44;5053140;28;20035;-68
2021/06/30 01:40:32;;;;;;;5.93;3.20;;;;;;;21.06;59.27;96655.19;5053332;28;20029;-68
2021/06/30 01:42:58;;;;;;;5.72;3.42;;;;;;;21.02;59.11;96664.88;5052931;28;20036;-69
2021/06/30 01:45:25;;;;;;;8.63;3.60;;;;;;;20.88;60.19;96658.50;5052880;28;20082;-69
2021/06/30 01:47:51;;;;;;;5.70;3.28;;;;;;;20.76;60.53;96660.16;5052889;28;20436;-69
2021/06/30 01:50:16;;;;;;;5.68;3.20;;;;;;;20.63;61.14;96652.69;5052738;28;20025;-70
2021/06/30 01:52:43;;;;;;;7.28;3.28;;;;;;;20.67;60.74;96653.97;5053214;28;20063;-69
2021/06/30 01:55:10;;;;;;;7.55;3.47;;;;;;;20.68;60.75;96661.97;5052805;28;20028;-69
2021/06/30 01:57:42;;;;;;;7.20;3.50;;;;;;;20.53;61.18;96650.34;5069169;28;20491;-70
2021/06/30 02:00:10;;;;;;;8.48;3.30;;;;;;;20.63;60.36;96663.63;5071940;28;20024;-70
2021/06/30 02:02:37;;;;;;;5.53;3.30;;;;;;;20.71;60.12;96658.00;5071480;28;20029;-69
2021/06/30 02:05:08;;;;;;;8.35;3.28;;;;;;;20.71;60.01;96660.75;5072762;28;20400;-69
2021/06/30 02:07:33;;;;;;;6.50;3.40;;;;;;;20.80;59.42;96658.69;5071351;28;20116;-68
2021/06/30 02:09:59;;;;;;;5.40;3.25;;;;;;;20.80;59.64;96661.41;5071348;28;20079;-69
2021/06/30 02:12:25;;;;;;;11.85;3.35;;;;;;;20.77;59.31;96649.00;5072944;28;20028;-70
2021/06/30 02:14:50;;;;;;;8.90;3.40;;;;;;;20.87;59.13;96654.94;5072899;28;20384;-70
2021/06/30 02:17:18;;;;;;;8.15;3.38;;;;;;;20.64;60.05;96654.41;5071370;28;20024;-70
2021/06/30 02:19:45;;;;;;;7.53;3.20;;;;;;;20.63;60.04;96653.56;5072605;28;20447;-69
2021/06/30 02:22:11;;;;;;;8.00;3.45;;;;;;;20.45;60.61;96656.84;5072615;28;20118;-69
2021/06/30 02:24:37;;;;;;;4.93;2.95;;;;;;;20.65;59.45;96645.16;5072507;28;20054;-68
2021/06/30 02:27:02;;;;;;;5.88;3.00;;;;;;;20.71;59.53;96647.94;5072839;28;20147;-68
2021/06/30 02:29:28;;;;;;;7.90;3.40;;;;;;;20.67;59.79;96645.78;5071594;28;20422;-69
2021/06/30 02:31:53;;;;;;;4.80;3.25;;;;;;;20.58;59.64;96650.59;5072934;28;20028;-69
2021/06/30 02:34:18;;;;;;;7.90;3.40;;;;;;;20.45;60.15;96654.09;5073731;28;20423;-69
2021/06/30 02:36:44;;;;;;;9.15;3.28;;;;;;;20.41;60.33;96653.66;5076219;28;20456;-69
2021/06/30 02:39:09;;;;;;;6.28;3.05;;;;;;;20.44;59.95;96651.56;5076198;28;20048;-69
2021/06/30 02:41:34;;;;;;;7.45;3.20;;;;;;;20.56;59.49;96656.25;5076046;28;20020;-69
2021/06/30 02:44:00;;;;;;;7.80;3.38;;;;;;;20.58;59.77;96656.88;5076305;28;20043;-70
2021/06/30 02:46:25;;;;;;;7.30;3.35;;;;;;;20.65;59.61;96656.91;5075788;28;20045;-67
2021/06/30 02:48:51;;;;;;;6.32;3.50;;;;;;;20.54;60.16;96658.34;5075926;28;20013;-66
2021/06/30 02:51:16;;;;;;;8.40;3.25;;;;;;;20.35;60.93;96650.88;5075911;28;20025;-67
2021/06/30 02:53:41;;;;;;;4.93;3.13;;;;;;;20.31;61.59;96650.47;5075851;28;20016;-67
2021/06/30 02:56:07;;;;;;;6.68;3.22;;;;;;;20.34;61.36;96655.53;5076032;28;20499;-67
2021/06/30 02:58:32;;;;;;;5.32;3.17;;;;;;;20.24;61.99;96655.91;5075757;28;20031;-67
2021/06/30 03:00:58;;;;;;;8.80;3.10;;;;;;;20.33;61.22;96650.25;5075537;28;20468;-66
2021/06/30 03:03:23;;;;;;;6.93;3.08;;;;;;;20.35;61.53;96648.16;5075752;28;20028;-66
2021/06/30 03:05:48;;;;;;;11.25;3.00;;;;;;;20.32;62.14;96654.88;5075367;28;20028;-66
2021/06/30 03:08:14;;;;;;;7.45;3.20;;;;;;;20.36;62.19;96641.66;5075419;28;20025;-68
2021/06/30 03:10:39;;;;;;;5.20;3.22;;;;;;;20.53;60.62;96642.16;5073876;28;20431;-68
2021/06/30 03:13:05;;;;;;;5.82;3.00;;;;;;;20.67;59.92;96640.31;5075627;28;20027;-70
2021/06/30 03:15:30;;;;;;;5.35;2.95;;;;;;;20.74;59.27;96638.50;5075249;28;20016;-69
2021/06/30 03:17:56;;;;;;;7.65;3.20;;;;;;;20.75;59.18;96642.91;5074417;28;20060;-69
2021/06/30 03:20:21;;;;;;;8.68;3.10;;;;;;;20.67;61.08;96641.19;5075505;28;20469;-69
2021/06/30 03:22:47;;;;;;;7.15;2.85;;;;;;;20.45;61.48;96631.41;5075225;28;20024;-69
2021/06/30 03:25:14;;;;;;;6.10;2.95;;;;;;;20.50;60.91;96632.50;5073767;28;20469;-69
2021/06/30 03:27:40;;;;;;;6.82;3.08;;;;;;;20.60;59.86;96636.72;5075332;28;20032;-68
2021/06/30 03:30:08;;;;;;;6.75;3.45;;;;;;;20.56;61.01;96628.09;5075259;28;20311;-70
2021/06/30 03:32:33;;;;;;;11.13;3.20;;;;;;;20.48;60.89;96631.84;5074822;28;20464;-66
2021/06/30 03:34:59;;;;;;;10.00;3.47;;;;;;;20.43;61.26;96628.91;5073658;28;20031;-67
2021/06/30 03:37:24;;;;;;;7.22;3.25;;;;;;;20.50;61.30;96629.75;5074791;28;20025;-67
2021/06/30 03:39:50;;;;;;;6.72;3.13;;;;;;;20.45;61.41;96628.69;5074761;28;20028;-67
2021/06/30 03:42:15;;;;;;;8.38;3.40;;;;;;;20.52;61.57;96630.41;5075063;28;20036;-69
2021/06/30 03:44:41;;;;;;;7.00;3.20;;;;;;;20.63;61.08;96628.13;5074481;28;20024;-69
2021/06/30 03:47:06;;;;;;;5.80;3.25;;;;;;;20.56;61.53;96630.81;5074748;28;20392;-69
2021/06/30 03:49:32;;;;;;;6.20;3.00;;;;;;;20.43;61.71;96628.91;5074577;28;20469;-67
2021/06/30 03:51:57;;;;;;;7.25;3.20;;;;;;;20.37;61.27;96632.44;5074728;28;20491;-68
2021/06/30 03:54:26;;;;;;;6.25;3.17;;;;;;;20.29;61.91;96633.44;5074519;28;20070;-68
2021/06/30 03:56:52;;;;;;;7.00;3.15;;;;;;;20.37;62.14;96637.88;5074555;28;20086;-67
2021/06/30 03:59:17;;;;;;;8.10;3.13;;;;;;;20.43;61.99;96639.81;5074660;28;20033;-67
2021/06/30 04:01:43;;;;;;;8.10;3.70;;;;;;;20.51;61.73;96641.50;5074521;28;20033;-67
2021/06/30 04:04:11;;;;;;;8.05;3.20;;;;;;;20.45;61.81;96640.44;5072914;28;20035;-66
2021/06/30 04:06:38;;;;;;;7.38;3.22;;;;;;;20.53;61.94;96644.91;5074466;28;20028;-67
2021/06/30 04:09:03;;;;;;;9.15;3.10;;;;;;;20.46;61.75;96636.66;5074185;28;20044;-69
2021/06/30 04:11:29;;;;;;;8.35;3.20;;;;;;;20.47;61.62;96645.69;5074424;28;20085;-70
2021/06/30 04:13:54;;;;;;;5.47;3.17;;;;;;;20.57;61.73;96643.44;5074138;28;20111;-69
2021/06/30 04:16:20;;;;;;;8.52;3.20;;;;;;;20.61;61.59;96644.72;5074161;28;20035;-69
2021/06/30 04:18:45;;;;;;;9.93;3.30;;;;;;;20.72;60.70;96651.50;5073007;28;20025;-69
2021/06/30 04:21:10;;;;;;;8.88;3.38;;;;;;;20.73;60.17;96651.28;5073968;28;20077;-70
2021/06/30 04:23:36;;;;;;;11.88;3.40;;;;;;;20.83;60.34;96645.47;5072971;28;20017;-70
2021/06/30 04:26:02;;;;;;;9.18;3.53;;;;;;;20.93;59.81;96655.16;5071979;28;20029;-67
2021/06/30 04:28:28;;;;;;;7.35;3.38;;;;;;;20.89;60.24;96652.81;5061873;28;20028;-68
2021/06/30 04:30:54;;;;;;;9.13;3.40;;;;;;;20.88;61.41;96648.44;5069921;28;20032;-70
2021/06/30 04:33:19;;;;;;;11.13;3.47;;;;;;;20.76;61.31;96650.06;5072280;28;20032;-67
2021/06/30 04:35:45;;;;;;;7.45;3.30;;;;;;;20.78;61.38;96652.56;5072634;28;20028;-69
2021/06/30 04:38:10;;;;;;;7.15;3.17;;;;;;;20.70;61.02;96646.25;5073657;28;20063;-69
2021/06/30 04:40:36;;;;;;;8.23;3.35;;;;;;;20.72;61.64;96646.91;5073614;28;20388;-71
2021/06/30 04:43:01;;;;;;;6.63;3.00;;;;;;;;;;5071079;28;20388;-68
2021/06/30 04:45:26;;;;;;;8.52;3.42;;;;;;;20.97;60.66;96645.50;5073077;28;20072;-68
2021/06/30 04:47:52;;;;;;;7.40;3.40;;;;;;;20.92;61.45;96651.56;5073309;28;20016;-69
2021/06/30 04:50:17;;;;;;;10.68;3.33;;;;;;;20.95;60.71;96653.06;5073330;28;20031;-69
2021/06/30 04:52:43;;;;;;;8.52;3.60;;;;;;;21.01;60.57;96655.81;5073017;28;20033;-69
2021/06/30 04:55:08;;;;;;;8.32;3.50;;;;;;;21.03;61.00;96656.44;5072983;28;20465;-69
2021/06/30 04:57:36;;;;;;;6.07;3.22;;;;;;;21.18;60.04;96653.53;5072984;28;20038;-69
2021/06/30 05:00:05;;;;;;;6.95;3.22;;;;;;;21.16;59.92;96655.63;5071688;28;20017;-67
2021/06/30 05:02:30;;;;;;;9.68;2.88;;;;;;;21.28;59.91;96650.38;5071489;28;20027;-70
2021/06/30 05:04:56;;;;;;;6.70;2.80;;;;;;;21.35;58.91;96650.38;5072452;28;20020;-70
2021/06/30 05:07:21;;;;;;;8.00;2.90;;;;;;;21.31;59.49;96649.13;5070773;28;20024;-69
2021/06/30 05:09:47;;;;;;;8.65;2.72;;;;;;;21.35;58.76;96647.66;5072316;28;20045;-69
2021/06/30 05:12:13;;;;;;;5.32;2.97;;;;;;;21.37;58.98;96651.03;5072470;28;20074;-70
2021/06/30 05:14:38;;;;;;;8.30;2.67;;;;;;;21.42;58.85;96654.00;5067385;28;20025;-70
2021/06/30 05:17:04;;;;;;;9.10;3.00;;;;;;;21.47;58.83;96662.41;5071258;28;20500;-71
2021/06/30 05:19:29;;;;;;;10.65;2.90;;;;;;;21.48;59.50;96657.78;5070517;28;20020;-68
2021/06/30 05:21:56;;;;;;;7.97;2.83;;;;;;;21.56;58.09;96650.22;5071372;28;20017;-67
2021/06/30 05:24:23;;;;;;;6.93;2.67;;;;;;;21.60;58.49;96650.66;5071410;28;20028;-67
2021/06/30 05:26:48;;;;;;;8.10;2.60;;;;;;;21.75;57.70;96653.16;5062634;28;20067;-68
2021/06/30 05:29:14;;;;;;;8.05;3.10;;;;;;;21.65;57.54;96652.78;5058197;28;20078;-68
2021/06/30 05:31:39;;;;;;;9.13;3.10;;;;;;;21.58;58.93;96652.78;5063269;28;20028;-68
2021/06/30 05:34:04;;;;;;;8.82;2.83;;;;;;;21.61;58.43;96649.59;5066184;28;20024;-69
2021/06/30 05:36:30;;;;;;;11.75;2.90;;;;;;;21.59;58.82;96653.59;5067505;28;20555;-67
2021/06/30 05:38:55;;;;;;;9.80;3.33;;;;;;;21.59;58.58;96656.34;5071507;28;20029;-67
2021/06/30 05:41:21;;;;;;;6.53;2.65;;;;;;;21.78;58.47;96646.44;5062015;28;20025;-67
2021/06/30 05:43:46;;;;;;;9.30;3.00;;;;;;;21.96;57.81;96648.53;5070986;28;20025;-67
2021/06/30 05:46:12;;;;;;;7.63;2.83;;;;;;;21.99;58.03;96659.88;5065621;28;20020;-68
2021/06/30 05:48:37;;;;;;;5.47;3.00;;;;;;;21.83;58.50;96660.31;5072327;28;20021;-67
2021/06/30 05:51:03;;;;;;;10.50;3.20;;;;;;;21.96;57.99;96656.75;5070800;28;20472;-67
2021/06/30 05:53:28;;;;;;;11.57;2.97;;;;;;;22.08;56.94;96653.13;5069392;28;20476;-67
2021/06/30 05:55:54;;;;;;;6.82;2.83;;;;;;;22.10;56.97;96650.19;5070449;28;20028;-68
2021/06/30 05:58:19;;;;;;;9.95;2.95;;;;;;;22.36;56.26;96654.78;5068399;28;20027;-67
2021/06/30 06:00:45;;;;;;;7.53;2.97;;;;;;;22.30;55.80;96641.94;5071988;28;20491;-67
2021/06/30 06:03:10;;;;;;;12.27;3.10;;;;;;;22.14;56.32;96637.75;5072748;28;20025;-67
2021/06/30 06:05:36;;;;;;;8.45;2.85;;;;;;;22.29;55.78;96642.13;5072584;28;20028;-67
2021/06/30 06:08:03;;;;;;;6.57;2.88;;;;;;;22.38;55.14;96651.81;5072902;28;20024;-67
2021/06/30 06:10:28;;;;;;;9.10;2.97;;;;;;;22.40;56.09;96644.25;5075322;28;20052;-67
2021/06/30 06:12:54;;;;;;;12.82;3.15;;;;;;;22.64;55.23;96645.41;5076548;28;20032;-67
2021/06/30 06:15:19;;;;;;;8.40;2.80;;;;;;;22.67;54.73;96639.50;5073744;28;20024;-67
2021/06/30 06:17:45;;;;;;;10.05;3.05;;;;;;;22.32;56.08;96645.28;5071566;28;20150;-67
2021/06/30 06:20:11;;;;;;;8.80;2.90;;;;;;;22.61;55.51;96655.97;5075222;28;20020;-68
2021/06/30 06:22:37;;;;;;;6.93;2.92;;;;;;;22.62;55.34;96653.03;5074644;28;20021;-68
2021/06/30 06:25:04;;;;;;;7.25;2.90;;;;;;;22.89;54.05;96655.66;5074520;28;20385;-67
2021/06/30 06:27:30;;;;;;;8.65;2.75;;;;;;;22.82;53.97;96661.16;5076181;28;20017;-68
2021/06/30 06:29:56;;;;;;;5.78;2.60;;;;;;;22.91;53.79;96650.78;5076003;28;20090;-67
2021/06/30 06:32:21;;;;;;;7.82;3.20;;;;;;;23.06;53.73;96653.22;5075669;28;20472;-67
2021/06/30 06:34:46;;;;;;;9.68;2.88;;;;;;;23.35;53.18;96664.69;5075908;28;20025;-67
2021/06/30 06:37:14;;;;;;;9.80;3.00;;;;;;;23.57;51.73;96662.41;5075958;28;20027;-67
2021/06/30 06:39:40;;;;;;;9.35;3.08;;;;;;;23.23;52.99;96668.13;5075690;28;20025;-69
2021/06/30 06:42:06;;;;;;;9.15;2.55;;;;;;;23.32;52.70;96667.88;5075614;28;20070;-69
2021/06/30 06:44:34;;;;;;;9.63;3.35;;;;;;;23.38;52.26;96666.97;5074416;28;20027;-69
2021/06/30 06:46:59;;;;;;;7.50;2.92;;;;;;;23.26;53.34;96652.28;5068444;28;20021;-70
2021/06/30 06:49:25;;;;;;;7.35;2.78;;;;;;;23.50;52.25;96656.13;5064874;28;20457;-71
2021/06/30 06:51:50;;;;;;;11.65;3.15;;;;;;;23.63;52.15;96655.22;5064160;28;20400;-70
2021/06/30 06:54:15;;;;;;;8.93;3.03;;;;;;;23.65;52.33;96659.41;5069380;28;20020;-70
2021/06/30 06:56:41;;;;;;;8.68;3.20;;;;;;;23.51;52.61;96655.91;5075072;28;20024;-70
2021/06/30 06:59:06;;;;;;;9.57;3.10;;;;;;;23.51;53.45;96655.91;5073637;28;20063;-71
2021/06/30 07:01:32;;;;;;;10.60;3.20;;;;;;;23.55;53.65;96659.88;5072744;28;20032;-70
2021/06/30 07:03:57;;;;;;;10.18;3.13;;;;;;;23.47;54.04;96653.84;5065653;28;20035;-69
2021/06/30 07:06:22;;;;;;;9.40;3.58;;;;;;;23.72;53.45;96653.88;5055270;28;20025;-71
2021/06/30 07:08:48;;;;;;;8.55;2.75;;;;;;;23.15;53.97;96656.59;5058284;28;20021;-71
2021/06/30 07:11:13;;;;;;;7.80;3.17;;;;;;;23.26;54.02;96657.78;5071688;28;20037;-71
2021/06/30 07:13:39;;;;;;;11.57;3.30;;;;;;;23.56;53.62;96664.31;5064494;28;20024;-69
2021/06/30 07:16:05;;;;;;;9.90;3.40;;;;;;;23.81;53.05;96659.91;5055448;28;20052;-69
2021/06/30 07:18:35;;;;;;;8.27;3.13;;;;;;;23.88;53.58;96660.69;5063695;28;20028;-70
2021/06/30 07:21:02;;;;;;;8.93;3.40;;;;;;;23.84;52.78;96667.72;5065197;28;20048;-71
2021/06/30 07:23:27;;;;;;;13.05;3.85;;;;;;;24.03;51.96;96669.44;5066381;28;20807;-71
2021/06/30 07:25:53;;;;;;;9.25;3.30;;;;;;;23.89;52.17;96663.25;5070218;28;20028;-71
2021/06/30 07:28:19;;;;;;;11.95;3.22;;;;;;;23.95;52.40;96667.00;5070769;28;20041;-71
2021/06/30 07:30:44;;;;;;;10.50;3.30;;;;;;;23.85;52.87;96666.63;5073729;28;20028;-70
2021/06/30 07:33:10;;;;;;;11.95;3.30;;;;;;;23.66;53.45;96671.22;5072508;28;20020;-71
2021/06/30 07:35:35;;;;;;;7.50;3.30;;;;;;;23.96;50.95;96668.69;5069170;28;20382;-69
2021/06/30 07:38:01;;;;;;;7.60;2.95;;;;;;;24.06;50.03;96665.41;5048717;28;20075;-71
2021/06/30 07:40:26;;;;;;;12.07;3.22;;;;;;;24.18;50.53;96673.75;5050444;28;20119;-71
2021/06/30 07:42:52;;;;;;;8.85;3.60;;;;;;;24.29;50.61;96670.28;5103448;28;20029;-71
2021/06/30 07:45:17;;;;;;;7.78;2.78;;;;;;;24.16;50.58;96668.50;5063729;28;20099;-71
2021/06/30 07:47:43;;;;;;;9.27;3.50;;;;;;;24.49;49.77;96660.94;5060461;28;20052;-70
2021/06/30 07:50:09;;;;;;;10.02;3.55;;;;;;;24.53;50.18;96668.53;5067542;28;20066;-70
2021/06/30 07:52:34;;;;;;;8.73;3.13;;;;;;;24.61;50.11;96674.78;5069914;28;20032;-69
2021/06/30 07:55:01;;;;;;;13.15;3.30;;;;;;;24.36;49.72;96676.53;5067115;28;20082;-72
2021/06/30 07:57:26;;;;;;;8.68;3.63;;;;;;;24.47;49.77;96668.59;5064986;28;20024;-70
2021/06/30 07:59:53;;;;;;;12.55;3.80;;;;;;;24.24;50.72;96673.69;5067763;28;20427;-70
2021/06/30 08:02:18;;;;;;;11.00;4.00;;;;;;;24.37;51.05;96669.09;5068445;28;20392;-69
2021/06/30 08:04:44;;;;;;;10.55;3.55;;;;;;;24.44;50.01;96664.41;5061407;28;20032;-69
2021/06/30 08:07:09;;;;;;;7.65;4.00;;;;;;;24.67;49.99;96666.47;5064046;28;20028;-70
2021/06/30 08:09:35;;;;;;;10.75;3.10;;;;;;;24.71;48.44;96670.44;5051606;28;20437;-69
2021/06/30 08:12:03;;;;;;;9.02;3.05;;;;;;;24.70;48.95;96662.44;5062576;28;20032;-71
2021/06/30 08:14:29;;;;;;;9.13;3.30;;;;;;;24.74;48.78;96666.41;5064684;28;20032;-68
2021/06/30 08:16:55;;;;;;;10.13;3.50;;;;;;;24.69;50.21;96671.75;5104035;28;20036;-70
2021/06/30 08:19:20;;;;;;;11.00;3.33;;;;;;;24.61;49.67;96672.03;5072109;28;20048;-70
2021/06/30 08:21:46;;;;;;;8.23;3.17;;;;;;;24.47;49.78;96663.94;5073429;28;20085;-70
2021/06/30 08:24:11;;;;;;;9.35;3.38;;;;;;;24.56;50.40;96668.06;5062645;28;20143;-71
2021/06/30 08:26:37;;;;;;;8.15;4.43;;;;;;;24.55;51.62;96666.38;5061916;28;20032;-72
2021/06/30 08:29:03;;;;;;;10.48;3.70;;;;;;;24.70;49.57;96665.19;5069948;28;20572;-73
2021/06/30 08:31:28;;;;;;;9.93;3.60;;;;;;;24.55;49.85;96671.03;5070008;28;20029;-72
2021/06/30 08:33:54;;;;;;;12.60;3.38;;;;;;;24.58;48.88;96660.41;5067751;28;20039;-72
2021/06/30 08:36:19;;;;;;;8.48;3.33;;;;;;;24.71;49.32;96664.94;5062516;28;20116;-73
2021/06/30 08:38:45;;;;;;;10.82;3.78;;;;;;;25.03;49.62;96666.69;5065085;28;20043;-73
2021/06/30 08:41:10;;;;;;;8.40;3.28;;;;;;;24.90;48.28;96667.69;5068960;28;20496;-72
2021/06/30 08:43:36;;;;;;;11.00;4.22;;;;;;;25.26;48.56;96670.59;5068131;28;20033;-70
2021/06/30 08:46:02;;;;;;;8.70;3.72;;;;;;;25.16;48.82;96676.63;5067438;28;20033;-72
2021/06/30 08:48:31;;;;;;;8.00;3.50;;;;;;;24.95;48.02;96670.59;5071654;28;20028;-70
2021/06/30 08:51:01;;;;;;;10.35;3.92;;;;;;;25.10;48.26;96683.91;5070889;28;21495;-73
2021/06/30 08:53:28;;;;;;;10.00;3.60;;;;;;;25.29;47.55;96668.19;5071398;28;20557;-73
2021/06/30 08:55:54;;;;;;;9.18;3.25;;;;;;;25.13;47.55;96671.63;5068762;28;20017;-73
2021/06/30 08:58:19;;;;;;;8.43;3.60;;;;;;;25.17;47.56;96670.91;5071200;28;20082;-73
2021/06/30 09:00:45;;;;;;;7.72;3.00;;;;;;;25.53;47.40;96671.06;5072058;28;20032;-71
2021/06/30 09:03:18;;;;;;;12.75;4.28;;;;;;;25.18;48.86;96672.59;5070957;28;20465;-72
2021/06/30 09:08:36;;;;;;;10.68;4.55;;;;;;;25.24;50.32;96677.16;5072536;28;20020;-72
2021/06/30 09:11:10;;;;;;;12.18;4.78;;;;;;;25.15;50.73;96675.81;5072398;28;20522;-72
2021/06/30 09:13:35;;;;;;;10.23;4.30;;;;;;;25.24;49.88;96666.16;5071317;28;20036;-69
2021/06/30 09:16:02;;;;;;;9.43;4.40;;;;;;;25.42;49.29;96667.22;5072650;28;20025;-71
2021/06/30 09:18:40;;;;;;;8.23;4.30;;;;;;;25.55;48.83;96664.25;5072584;28;20036;-70
2021/06/30 09:21:28;;;;;;;10.05;4.75;;;;;;;25.49;48.98;96665.19;5055712;28;20044;-71
2021/06/30 09:24:01;;;;;;;10.82;5.60;;;;;;;25.28;50.29;96672.03;5072379;28;20497;-72
2021/06/30 09:26:28;;;;;;;11.40;5.32;;;;;;;25.43;49.92;96679.91;5071409;28;20491;-72
2021/06/30 09:29:08;;;;;;;9.90;5.40;;;;;;;25.37;49.90;96675.31;5071190;28;20481;-72
2021/06/30 09:31:35;;;;;;;9.82;4.63;;;;;;;25.73;48.69;96681.75;5071383;28;20048;-71
2021/06/30 09:34:00;;;;;;;12.57;5.20;;;;;;;25.71;47.68;96667.41;5071276;28;20017;-71
2021/06/30 09:36:32;;;;;;;7.47;4.28;;;;;;;25.55;47.92;96671.69;5072473;28;20070;-71
2021/06/30 09:39:08;;;;;;;9.13;4.50;;;;;;;25.52;47.54;96667.47;5071194;28;20017;-70
2021/06/30 09:41:34;;;;;;;6.28;4.00;;;;;;;25.61;47.31;96678.16;5072501;28;20013;-71
2021/06/30 09:44:08;;;;;;;8.25;4.32;;;;;;;25.45;47.95;96672.22;5073728;28;20017;-71
2021/06/30 09:46:35;;;;;;;9.60;4.07;;;;;;;25.61;47.27;96672.66;5058329;28;20064;-70
2021/06/30 09:49:05;;;;;;;7.55;4.07;;;;;;;25.72;47.37;96680.06;5075144;28;20016;-71
2021/06/30 09:51:31;;;;;;;9.27;4.35;;;;;;;26.02;45.97;96663.47;5076011;28;20028;-70
2021/06/30 09:54:08;;;;;;;8.15;3.70;;;;;;;26.31;45.41;96665.53;5075179;28;20047;-70
2021/06/30 09:56:37;;;;;;;10.00;4.35;;;;;;;25.93;46.00;96650.31;5075934;28;20170;-70
2021/06/30 09:59:09;;;;;;;8.47;4.17;;;;;;;25.63;47.00;96668.59;5059747;28;20020;-71
2021/06/30 10:01:35;;;;;;;9.63;4.85;;;;;;;25.78;46.85;96667.31;5076029;28;20388;-70
2021/06/30 10:04:00;;;;;;;11.55;4.85;;;;;;;25.51;48.12;96663.03;5071605;28;20487;-69
2021/06/30 10:06:31;;;;;;;7.28;4.47;;;;;;;25.13;48.85;96655.09;5075741;28;20029;-69
2021/06/30 10:08:58;;;;;;;8.60;4.53;;;;;;;25.09;48.98;96653.91;5074579;28;20052;-69
2021/06/30 10:11:28;;;;;;;10.07;4.00;;;;;;;25.80;47.90;96654.97;5074354;28;20028;-69
2021/06/30 10:13:54;;;;;;;8.63;3.97;;;;;;;26.22;46.82;96654.06;5074509;28;20106;-69
2021/06/30 10:16:21;;;;;;;11.02;4.40;;;;;;;26.07;46.31;96654.53;5075494;28;20835;-70
2021/06/30 10:18:52;;;;;;;8.75;4.20;;;;;;;26.10;47.01;96655.97;5075633;28;20036;-70
2021/06/30 10:21:21;;;;;;;8.02;4.47;;;;;;;26.33;46.61;96669.72;5075742;28;20024;-70
2021/06/30 10:23:48;;;;;;;7.05;4.25;;;;;;;26.43;45.02;96660.00;5075904;28;20040;-70
2021/06/30 10:26:16;;;;;;;10.70;4.20;;;;;;;26.54;45.60;96660.00;5075884;28;20028;-70
2021/06/30 10:28:42;;;;;;;7.57;4.07;;;;;;;26.45;45.92;96661.44;5075752;28;20086;-70
2021/06/30 10:31:09;;;;;;;9.30;4.18;;;;;;;26.03;47.87;96667.09;5074489;28;20035;-68
2021/06/30 10:33:41;;;;;;;11.77;4.30;;;;;;;25.06;48.30;96656.03;5074043;28;20032;-71
2021/06/30 10:36:07;;;;;;;11.48;4.20;;;;;;;25.33;48.62;96657.56;5075538;28;20056;-71
2021/06/30 10:38:54;;;;;;;11.57;4.78;;;;;;;24.96;50.09;96657.66;5075454;28;20031;-72
2021/06/30 10:41:42;;;;;;;8.43;4.30;;;;;;;25.81;47.76;96645.59;5060412;28;20468;-73
2021/06/30 10:44:18;;;;;;;7.82;4.20;;;;;;;26.35;45.91;96651.03;5069815;28;20032;-74
2021/06/30 11:10:49;;;;;;;9.13;4.35;;;;;;;25.50;47.62;96631.06;5087472;27;20389;-69
2021/06/30 11:13:14;;;;;;;8.40;4.53;;;;;;;25.59;47.70;96636.25;5087405;28;20028;-72
2021/06/30 11:15:40;;;;;;;11.05;4.80;;;;;;;25.69;48.17;96631.00;5087945;28;20016;-67
2021/06/30 11:18:11;;;;;;;11.20;4.32;;;;;;;24.86;50.23;96628.78;5086774;28;20032;-71
2021/06/30 11:20:54;;;;;;;9.15;4.10;;;;;;;25.17;49.02;96626.06;5088045;28;20073;-70
2021/06/30 11:23:23;;;;;;;7.32;4.55;;;;;;;25.24;48.74;96635.91;5075154;28;20397;-70
2021/06/30 11:25:50;;;;;;;8.40;4.63;;;;;;;25.65;47.84;96635.31;5088337;28;20024;-70
2021/06/30 11:28:35;;;;;;;10.95;4.63;;;;;;;25.20;49.04;96631.06;5088222;28;20024;-72
2021/06/30 11:31:27;;;;;;;11.85;5.00;;;;;;;25.69;48.30;96634.56;5088953;28;20040;-74
2021/06/30 11:34:02;;;;;;;14.13;4.60;;;;;;;25.61;46.94;96639.59;5083699;28;20515;-64
2021/06/30 11:36:27;;;;;;;8.90;5.00;;;;;;;25.54;47.91;96623.19;5089274;28;20530;-64
2021/06/30 11:38:53;;;;;;;10.88;5.07;;;;;;;26.01;48.33;96633.41;5085480;28;20036;-64
2021/06/30 11:41:24;;;;;;;8.60;4.82;;;;;;;25.95;47.66;96635.22;5083990;28;20035;-64
2021/06/30 11:43:50;;;;;;;9.85;4.90;;;;;;;26.07;47.18;96635.25;5070877;28;20500;-63
2021/06/30 11:46:21;;;;;;;12.43;4.65;;;;;;;26.00;46.53;96634.50;5083215;28;20016;-65
2021/06/30 11:48:53;;;;;;;12.80;5.03;;;;;;;25.50;47.72;96644.84;5065312;28;20035;-65
2021/06/30 11:51:18;;;;;;;12.65;5.35;;;;;;;25.13;49.29;96636.69;5083759;28;20040;-70
2021/06/30 11:53:45;;;;;;;9.82;6.57;;;;;;;24.65;49.82;96640.28;5084143;28;20028;-69
2021/06/30 11:56:14;;;;;;;11.15;6.35;;;;;;;24.61;50.01;96630.78;5077558;28;20039;-69